Time;durP1;ratioP1;P1;durP2;ratioP2;P2;SDS_P1;SDS_P2;PMS_P1;PMS_P2;Temp;Humidity;BMP_temperature;BMP_pressure;BME280_temperature;BME280_humidity;BME280_pressure;Samples;Min_cycle;Max_cycle;Signal;HPM_P1;HPM_P2
2024/02/09 00:00:07;;;;;;;0.50;0.50;;;;;;;8.92;94.42;94778.81;29393;232;64009;-55
2024/02/09 00:00:40;;;;;;;0.60;0.60;;;;;;;8.89;94.86;94774.84;29395;242;63009;-55
2024/02/09 00:01:12;;;;;;;0.60;0.60;;;;;;;8.89;94.80;94779.47;29395;234;63004;-68
2024/02/09 00:01:43;;;;;;;0.50;0.50;;;;;;;8.88;95.06;94780.59;29395;233;63009;-55
2024/02/09 00:02:14;;;;;;;0.50;0.50;;;;;;;8.90;94.94;94786.47;29395;241;63004;-54
2024/02/09 00:02:46;;;;;;;0.50;0.50;;;;;;;8.91;94.63;94782.63;29395;228;63008;-55
2024/02/09 00:03:18;;;;;;;0.50;0.50;;;;;;;8.90;94.69;94784.53;29395;264;63005;-55
2024/02/09 00:03:50;;;;;;;0.50;0.50;;;;;;;8.90;94.89;94786.47;29395;226;63009;-55
2024/02/09 00:04:22;;;;;;;0.50;0.50;;;;;;;8.89;94.72;94784.88;29395;221;63005;-67
2024/02/09 00:04:53;;;;;;;0.50;0.50;;;;;;;8.89;94.81;94793.00;29395;240;63009;-56
2024/02/09 00:05:25;;;;;;;0.50;0.50;;;;;;;8.92;94.90;94784.22;29393;230;64009;-54
2024/02/09 00:05:56;;;;;;;0.60;0.60;;;;;;;8.90;94.97;94783.75;29395;209;63009;-55
2024/02/09 00:06:28;;;;;;;0.50;0.50;;;;;;;8.87;95.11;94777.09;29395;221;63004;-55
2024/02/09 00:06:59;;;;;;;0.50;0.50;;;;;;;8.89;94.61;94779.47;29395;204;63009;-55
2024/02/09 00:07:31;;;;;;;0.60;0.60;;;;;;;8.88;94.65;94784.09;29395;214;63004;-55
2024/02/09 00:08:04;;;;;;;0.50;0.50;;;;;;;8.88;94.77;94786.00;29395;197;63009;-55
2024/02/09 00:08:40;;;;;;;0.60;0.60;;;;;;;8.91;94.71;94777.22;29395;261;63004;-55
2024/02/09 00:09:12;;;;;;;0.60;0.60;;;;;;;8.91;94.55;94777.22;29395;311;63008;-55
2024/02/09 00:09:43;;;;;;;0.60;0.60;;;;;;;8.91;94.25;94788.84;29395;264;63004;-55
2024/02/09 00:10:19;;;;;;;0.50;0.50;;;;;;;8.91;94.59;94775.31;29395;206;63008;-55
2024/02/09 00:10:50;;;;;;;0.60;0.60;;;;;;;8.93;94.40;94785.78;29394;241;64009;-55
2024/02/09 00:11:22;;;;;;;0.50;0.50;;;;;;;8.93;94.46;94780.37;29395;239;63009;-55
2024/02/09 00:11:53;;;;;;;0.50;0.50;;;;;;;8.92;94.37;94774.19;29395;213;63005;-54
2024/02/09 00:12:25;;;;;;;0.50;0.50;;;;;;;8.95;94.13;94783.56;29395;204;63009;-67
2024/02/09 00:12:57;;;;;;;0.50;0.50;;;;;;;8.93;94.12;94774.97;29395;217;63005;-55
2024/02/09 00:13:28;;;;;;;0.50;0.50;;;;;;;8.93;94.42;94774.97;29395;236;63009;-55
2024/02/09 00:14:04;;;;;;;0.50;0.50;;;;;;;8.91;94.48;94777.22;29395;224;63004;-55
2024/02/09 00:14:36;;;;;;;0.50;0.50;;;;;;;8.90;94.29;94762.91;29395;312;63009;-54
2024/02/09 00:15:09;;;;;;;0.60;0.60;;;;;;;8.93;94.54;94770.34;29395;248;63004;-55
2024/02/09 00:15:45;;;;;;;0.50;0.50;;;;;;;8.96;94.40;94763.50;29395;253;63009;-55
2024/02/09 00:16:17;;;;;;;0.60;0.60;;;;;;;8.96;93.83;94771.59;29393;255;64009;-55
2024/02/09 00:16:52;;;;;;;0.50;0.50;;;;;;;8.96;94.03;94763.50;29395;217;63025;-55
2024/02/09 00:17:24;;;;;;;0.50;0.50;;;;;;;8.93;94.08;94758.75;29394;214;64005;-56
2024/02/09 00:17:55;;;;;;;0.50;0.50;;;;;;;8.92;94.35;94768.00;29395;214;63009;-67
2024/02/09 00:18:27;;;;;;;0.50;0.50;;;;;;;8.89;94.38;94764.03;29395;215;63005;-54
2024/02/09 00:18:58;;;;;;;0.50;0.50;;;;;;;8.86;94.41;94770.09;29395;246;63009;-54
2024/02/09 00:19:31;;;;;;;0.50;0.50;;;;;;;8.85;94.57;94770.44;29395;207;63005;-55
2024/02/09 00:20:10;;;;;;;0.50;0.50;;;;;;;8.84;94.83;94766.16;29395;197;63009;-55
2024/02/09 00:20:50;;;;;;;0.50;0.50;;;;;;;8.84;95.06;94760.75;29395;268;63005;-55
2024/02/09 00:21:22;;;;;;;0.50;0.50;;;;;;;8.84;95.06;94763.44;29437;216;64013;-55
2024/02/09 00:21:53;;;;;;;0.50;0.50;;;;;;;8.82;95.25;94752.16;29395;248;63004;-54
2024/02/09 00:22:25;;;;;;;0.57;0.57;;;;;;;8.83;95.13;94754.53;29395;250;63009;-55
2024/02/09 00:22:57;;;;;;;0.50;0.50;;;;;;;8.83;95.21;94751.84;29395;210;63004;-55
2024/02/09 00:23:29;;;;;;;0.50;0.50;;;;;;;8.82;95.13;94746.75;29395;227;63009;-56
2024/02/09 00:24:00;;;;;;;0.50;0.50;;;;;;;8.83;95.26;94742.94;29395;235;63017;-55
2024/02/09 00:24:32;;;;;;;0.50;0.50;;;;;;;8.85;94.86;94740.69;29395;234;63008;-55
2024/02/09 00:25:08;;;;;;;0.50;0.50;;;;;;;8.85;94.92;94740.69;29395;290;63005;-55
2024/02/09 00:25:40;;;;;;;0.50;0.50;;;;;;;8.85;94.61;94741.47;29395;249;63009;-55
2024/02/09 00:26:11;;;;;;;0.50;0.50;;;;;;;8.85;94.91;94735.28;29395;267;63005;-68
2024/02/09 00:26:42;;;;;;;0.50;0.50;;;;;;;8.85;94.86;94744.19;29393;264;64013;-55
2024/02/09 00:27:17;;;;;;;0.50;0.50;;;;;;;8.85;94.72;94746.88;29395;243;63005;-55
2024/02/09 00:27:48;;;;;;;0.50;0.50;;;;;;;8.87;94.75;94741.16;29395;219;63009;-55
2024/02/09 00:28:19;;;;;;;0.60;0.60;;;;;;;8.88;94.54;94745.44;29395;231;63005;-56
2024/02/09 00:28:50;;;;;;;0.50;0.50;;;;;;;8.87;94.49;94738.44;29395;245;63009;-55
2024/02/09 00:29:22;;;;;;;0.50;0.50;;;;;;;8.86;94.46;94742.28;29395;373;63004;-55
2024/02/09 00:29:54;;;;;;;0.50;0.50;;;;;;;8.83;94.32;94743.72;29395;398;63009;-55
2024/02/09 00:30:25;;;;;;;0.50;0.50;;;;;;;8.84;94.74;94741.81;29395;271;63004;-55
2024/02/09 00:30:57;;;;;;;0.50;0.50;;;;;;;8.84;94.43;94742.59;29395;218;63009;-67
2024/02/09 00:31:28;;;;;;;0.50;0.50;;;;;;;8.87;94.49;94743.84;29395;239;63004;-55
2024/02/09 00:31:59;;;;;;;0.40;0.40;;;;;;;8.88;94.30;94740.81;29394;210;64013;-55
2024/02/09 00:32:32;;;;;;;0.50;0.50;;;;;;;8.88;94.21;94738.12;29395;235;63005;-54
2024/02/09 00:33:07;;;;;;;0.50;0.50;;;;;;;8.89;94.02;94741.59;29395;234;63009;-54
2024/02/09 00:33:40;;;;;;;0.50;0.50;;;;;;;8.87;94.01;94738.44;29395;404;63005;-56
2024/02/09 00:34:11;;;;;;;0.50;0.50;;;;;;;8.88;93.91;94742.72;29395;263;63009;-55
2024/02/09 00:34:45;;;;;;;0.50;0.50;;;;;;;8.91;93.50;94733.94;29395;215;63005;-56
2024/02/09 00:35:17;;;;;;;0.60;0.60;;;;;;;8.95;93.24;94745.69;29395;212;63009;-56
2024/02/09 00:35:49;;;;;;;0.50;0.50;;;;;;;8.93;93.45;94739.81;29395;249;63005;-55
2024/02/09 00:36:22;;;;;;;0.50;0.50;;;;;;;8.92;93.21;94743.66;29395;212;63009;-55
2024/02/09 00:36:55;;;;;;;0.50;0.50;;;;;;;8.91;93.59;94744.78;29395;220;63004;-54
2024/02/09 00:37:27;;;;;;;0.50;0.50;;;;;;;8.90;93.66;94729.66;29394;220;64013;-55
2024/02/09 00:38:00;;;;;;;0.50;0.50;;;;;;;8.88;93.50;94745.44;29395;238;63004;-55
2024/02/09 00:38:35;;;;;;;0.50;0.50;;;;;;;8.87;93.85;94738.44;29395;246;63009;-54
2024/02/09 00:39:07;;;;;;;0.50;0.50;;;;;;;8.85;93.90;94741.47;29395;196;63004;-55
2024/02/09 00:39:38;;;;;;;0.50;0.50;;;;;;;8.87;93.71;94743.84;29395;261;63008;-55
2024/02/09 00:40:11;;;;;;;0.50;0.50;;;;;;;8.85;93.90;94741.47;29395;200;63005;-54
2024/02/09 00:40:42;;;;;;;0.50;0.50;;;;;;;8.85;94.09;94730.66;29395;224;63009;-57
2024/02/09 00:41:17;;;;;;;0.50;0.50;;;;;;;8.85;93.98;94729.88;29395;245;63005;-55
2024/02/09 00:41:51;;;;;;;0.60;0.60;;;;;;;8.85;94.04;94732.56;29395;223;63009;-55
2024/02/09 00:42:26;;;;;;;0.60;0.60;;;;;;;8.87;94.07;94728.41;29394;202;64009;-54
2024/02/09 00:43:01;;;;;;;0.50;0.50;;;;;;;8.86;93.96;94731.47;29395;220;63009;-54
2024/02/09 00:43:32;;;;;;;0.50;0.50;;;;;;;8.84;94.02;94731.00;29395;219;63005;-54
2024/02/09 00:44:04;;;;;;;0.50;0.50;;;;;;;8.81;94.21;94735.16;29395;197;63009;-55
2024/02/09 00:44:37;;;;;;;0.50;0.50;;;;;;;8.80;94.44;94730.09;29395;252;63004;-55
2024/02/09 00:45:09;;;;;;;0.60;0.60;;;;;;;8.78;94.57;94729.63;29395;265;63009;-67
2024/02/09 00:45:40;;;;;;;0.55;0.55;;;;;;;8.78;94.75;94732.31;29395;356;63004;-55
2024/02/09 00:46:15;;;;;;;0.50;0.50;;;;;;;8.76;94.66;94731.88;29395;241;63009;-68
2024/02/09 00:46:50;;;;;;;0.50;0.50;;;;;;;8.74;95.17;94730.28;29395;221;63004;-55
2024/02/09 00:47:22;;;;;;;0.60;0.60;;;;;;;8.74;95.01;94726.78;29395;206;63009;-55
2024/02/09 00:47:55;;;;;;;0.55;0.55;;;;;;;8.73;95.11;94727.91;29394;234;64009;-54
2024/02/09 00:48:26;;;;;;;0.50;0.50;;;;;;;8.73;95.49;94734.13;29395;239;63009;-55
2024/02/09 00:49:02;;;;;;;0.50;0.50;;;;;;;8.73;95.35;94727.91;29395;245;63005;-55
2024/02/09 00:49:35;;;;;;;0.60;0.60;;;;;;;8.72;95.58;94726.34;29395;222;63009;-55
2024/02/09 00:50:10;;;;;;;0.50;0.50;;;;;;;8.72;95.71;94727.13;29395;228;63005;-55
2024/02/09 00:50:41;;;;;;;0.50;0.50;;;;;;;8.72;95.52;94724.41;29395;302;63009;-70
2024/02/09 00:51:13;;;;;;;0.50;0.50;;;;;;;8.76;95.43;94731.88;29395;206;63005;-55
2024/02/09 00:51:45;;;;;;;0.50;0.50;;;;;;;8.75;95.59;94725.66;29395;264;63009;-54
2024/02/09 00:52:17;;;;;;;0.55;0.55;;;;;;;8.74;95.66;94724.88;29395;211;63004;-55
2024/02/09 00:52:50;;;;;;;0.60;0.60;;;;;;;8.75;95.88;94725.66;29395;242;63018;-55
2024/02/09 00:53:21;;;;;;;0.52;0.52;;;;;;;8.76;95.44;94729.16;29394;229;64009;-68
2024/02/09 00:53:52;;;;;;;0.50;0.50;;;;;;;8.74;95.88;94738.41;29395;269;63009;-55
2024/02/09 00:54:24;;;;;;;0.50;0.50;;;;;;;8.76;95.85;94734.56;29395;261;63004;-56
2024/02/09 00:54:55;;;;;;;0.50;0.50;;;;;;;8.77;95.84;94734.25;29395;210;63009;-55
2024/02/09 00:55:29;;;;;;;0.50;0.50;;;;;;;8.78;95.61;94729.63;29395;250;63009;-55
2024/02/09 00:56:00;;;;;;;0.50;0.50;;;;;;;8.82;95.63;94734.03;29395;378;63009;-56
2024/02/09 00:56:32;;;;;;;0.50;0.50;;;;;;;8.83;95.33;94732.13;29395;258;63005;-55
2024/02/09 00:57:07;;;;;;;0.50;0.50;;;;;;;8.84;95.40;94728.28;29395;245;63009;-65
2024/02/09 00:57:40;;;;;;;0.50;0.50;;;;;;;8.83;95.27;94721.31;29395;198;63005;-55
2024/02/09 00:58:11;;;;;;;0.50;0.50;;;;;;;8.83;95.47;94726.72;29395;209;63009;-55
2024/02/09 00:58:43;;;;;;;0.50;0.50;;;;;;;8.83;95.22;94722.09;29394;257;64019;-56
2024/02/09 00:59:15;;;;;;;0.50;0.50;;;;;;;8.88;95.13;94735.41;29395;199;63019;-55
2024/02/09 00:59:46;;;;;;;0.50;0.50;;;;;;;8.94;94.92;94731.38;29395;270;63004;-54
2024/02/09 01:00:19;;;;;;;0.50;0.50;;;;;;;8.96;94.72;94731.03;29394;210;64013;-55
2024/02/09 01:00:50;;;;;;;0.50;0.50;;;;;;;8.96;94.69;94733.75;29395;220;63017;-56
2024/02/09 01:01:21;;;;;;;0.50;0.50;;;;;;;8.95;94.50;94740.28;29395;232;63018;-55
2024/02/09 01:01:53;;;;;;;0.50;0.50;;;;;;;8.94;94.54;94730.59;29395;213;63004;-55
2024/02/09 01:02:25;;;;;;;0.50;0.50;;;;;;;8.93;94.54;94737.13;29395;232;63008;-55
2024/02/09 01:02:58;;;;;;;0.50;0.50;;;;;;;8.91;94.93;94726.63;29395;211;63005;-54
2024/02/09 01:03:29;;;;;;;0.50;0.50;;;;;;;8.90;94.73;94735.06;29395;202;63009;-55
2024/02/09 01:04:01;;;;;;;0.50;0.50;;;;;;;8.90;95.04;94735.06;29395;197;63005;-55
2024/02/09 01:04:34;;;;;;;0.60;0.60;;;;;;;8.88;94.94;94734.63;29395;203;63009;-55
2024/02/09 01:05:06;;;;;;;0.50;0.50;;;;;;;8.85;94.89;94729.88;29395;225;63005;-55
2024/02/09 01:05:38;;;;;;;0.50;0.50;;;;;;;8.86;95.35;94739.56;29394;271;64013;-55
2024/02/09 01:06:09;;;;;;;0.50;0.50;;;;;;;8.85;95.66;94735.28;29395;286;63004;-55
2024/02/09 01:06:40;;;;;;;0.50;0.50;;;;;;;8.83;95.47;94737.53;29395;241;63019;-56
2024/02/09 01:07:13;;;;;;;0.50;0.50;;;;;;;8.82;95.38;94738.66;29395;261;63004;-55
2024/02/09 01:07:50;;;;;;;0.50;0.50;;;;;;;8.81;95.74;94739.78;29395;202;63009;-54
2024/02/09 01:08:21;;;;;;;0.50;0.50;;;;;;;8.78;95.96;94735.03;29395;210;63004;-55
2024/02/09 01:08:53;;;;;;;0.50;0.50;;;;;;;8.79;96.20;94736.63;29395;196;63008;-54
2024/02/09 01:09:24;;;;;;;0.50;0.50;;;;;;;8.78;96.25;94730.41;29395;199;63005;-54
2024/02/09 01:09:58;;;;;;;0.50;0.50;;;;;;;8.77;96.45;94733.44;29395;255;63009;-67
2024/02/09 01:10:32;;;;;;;0.50;0.50;;;;;;;8.77;96.29;94733.44;29394;225;64005;-55
2024/02/09 01:11:08;;;;;;;0.60;0.60;;;;;;;8.76;96.23;94737.28;29394;248;64013;-55
2024/02/09 01:11:40;;;;;;;0.55;0.55;;;;;;;8.75;96.45;94736.47;29395;280;63005;-55
2024/02/09 02:44:53;;;;;;;0.50;0.50;;;;;;;8.21;100.00;94678.94;29395;197;63009;-56
2024/02/09 02:45:27;;;;;;;0.50;0.50;;;;;;;8.18;100.00;94679.59;29395;254;63004;-56
2024/02/09 02:45:58;;;;;;;0.50;0.50;;;;;;;8.17;100.00;94678.81;29394;231;64013;-55
2024/02/09 02:46:30;;;;;;;0.50;0.50;;;;;;;8.15;100.00;94685.66;29395;199;63005;-56
2024/02/09 02:47:03;;;;;;;0.50;0.50;;;;;;;8.14;100.00;94679.47;29395;434;63009;-56
2024/02/09 02:47:35;;;;;;;0.50;0.50;;;;;;;8.14;100.00;94670.56;29395;321;63005;-56
2024/02/09 03:04:39;;;;;;;0.50;0.50;;;;;;;8.04;100.00;94640.16;29395;219;63009;-55
2024/02/09 03:05:14;;;;;;;0.50;0.50;;;;;;;8.03;100.00;94651.28;29395;202;63004;-56
2024/02/09 03:05:45;;;;;;;0.50;0.50;;;;;;;8.02;100.00;94647.00;29395;236;63009;-55
2024/02/09 03:06:17;;;;;;;0.50;0.50;;;;;;;8.00;100.00;94641.91;29395;214;63018;-55
2024/02/09 03:06:51;;;;;;;0.50;0.50;;;;;;;8.00;100.00;94641.91;29394;230;64009;-55
2024/02/09 03:07:22;;;;;;;1.15;1.15;;;;;;;7.99;100.00;94637.63;29395;228;63008;-55
2024/02/09 03:07:56;;;;;;;0.50;0.50;;;;;;;7.99;100.00;94639.56;29395;228;63008;-56
2024/02/09 03:08:27;;;;;;;0.50;0.50;;;;;;;7.99;100.00;94637.63;29394;360;64009;-54
2024/02/09 03:08:59;;;;;;;0.50;0.50;;;;;;;8.01;100.00;94642.72;29395;242;63009;-54
2024/02/09 03:09:30;;;;;;;0.60;0.60;;;;;;;8.04;100.00;94637.44;29395;259;63005;-54
2024/02/09 03:10:01;;;;;;;0.60;0.60;;;;;;;8.04;100.00;94631.25;29395;240;63009;-54
2024/02/09 03:10:32;;;;;;;0.50;0.50;;;;;;;8.05;100.00;94633.63;29395;202;63009;-55
2024/02/09 03:11:06;;;;;;;0.50;0.50;;;;;;;8.04;100.00;94637.44;29395;233;63009;-54
2024/02/09 03:11:38;;;;;;;0.50;0.50;;;;;;;8.04;100.00;94632.03;29395;247;63005;-56
2024/02/09 03:12:13;;;;;;;0.50;0.50;;;;;;;8.02;100.00;94634.28;29395;229;63009;-55
2024/02/09 03:12:45;;;;;;;0.50;0.50;;;;;;;8.01;100.00;94627.31;29395;196;63011;-56
2024/02/09 03:13:16;;;;;;;0.50;0.50;;;;;;;8.01;100.00;94632.69;29395;252;63009;-56
2024/02/09 03:13:49;;;;;;;0.50;0.50;;;;;;;8.03;100.00;94629.66;29394;389;64009;-56
2024/02/09 03:14:22;;;;;;;0.50;0.50;;;;;;;8.04;100.00;94621.25;29395;392;63009;-56
2024/02/09 03:14:53;;;;;;;0.50;0.50;;;;;;;8.03;100.00;94630.47;29395;233;63004;-67
2024/02/09 03:15:24;;;;;;;0.50;0.50;;;;;;;8.04;100.00;94637.44;29395;319;63008;-56
2024/02/09 03:15:55;;;;;;;1.08;1.08;;;;;;;8.08;100.00;94635.66;29395;201;63005;-57
2024/02/09 03:16:26;;;;;;;0.55;0.55;;;;;;;8.07;100.00;94630.59;29395;208;63009;-55
2024/02/09 03:16:57;;;;;;;2.12;2.05;;;;;;;8.07;100.00;94631.38;29395;251;63008;-55
2024/02/09 03:17:30;;;;;;;0.60;0.60;;;;;;;8.06;100.00;94629.81;29395;228;63009;-56
2024/02/09 03:18:05;;;;;;;0.50;0.50;;;;;;;8.06;100.00;94634.41;29395;214;63005;-56
2024/02/09 03:18:36;;;;;;;0.50;0.50;;;;;;;8.03;100.00;94630.47;29395;272;63009;-56
2024/02/09 03:19:08;;;;;;;0.50;0.50;;;;;;;8.01;100.00;94632.69;29394;227;64009;-56
2024/02/09 03:19:39;;;;;;;0.60;0.60;;;;;;;8.04;100.00;94626.63;29395;250;63009;-55
2024/02/09 03:20:11;;;;;;;0.50;0.50;;;;;;;8.07;100.00;94630.59;29395;256;63004;-55
2024/02/09 03:20:42;;;;;;;0.60;0.60;;;;;;;8.04;100.00;94626.63;29395;272;63009;-55
2024/02/09 03:21:20;;;;;;;0.50;0.50;;;;;;;8.06;100.00;94624.41;29395;202;63016;-56
2024/02/09 03:21:53;;;;;;;0.50;0.50;;;;;;;8.07;100.00;94628.69;29395;257;63009;-54
2024/02/09 03:22:26;;;;;;;0.50;0.50;;;;;;;8.06;100.00;94624.41;29395;279;63004;-57
2024/02/09 03:23:01;;;;;;;0.60;0.60;;;;;;;8.06;100.00;94626.31;29395;222;63008;-55
2024/02/09 03:23:33;;;;;;;0.60;0.60;;;;;;;8.04;100.00;94632.03;29395;203;63005;-56
2024/02/09 03:24:05;;;;;;;0.50;0.50;;;;;;;8.07;100.00;94633.28;29395;362;63009;-56
2024/02/09 03:24:39;;;;;;;0.65;0.65;;;;;;;8.06;100.00;94624.41;29394;236;64009;-56
2024/02/09 03:25:11;;;;;;;0.50;0.50;;;;;;;8.07;100.00;94631.38;29395;223;63009;-56
2024/02/09 03:25:43;;;;;;;0.55;0.55;;;;;;;8.06;100.00;94626.31;29395;251;63005;-57
2024/02/09 03:26:14;;;;;;;0.50;0.50;;;;;;;8.06;100.00;94634.41;29395;250;63009;-56
2024/02/09 03:26:45;;;;;;;0.52;0.52;;;;;;;7.99;100.00;94629.53;29395;236;63005;-56
2024/02/09 03:27:16;;;;;;;0.60;0.60;;;;;;;8.01;100.00;94627.31;29395;255;63009;-56
2024/02/09 03:27:48;;;;;;;0.52;0.52;;;;;;;7.97;100.00;94631.78;29395;348;63004;-56
2024/02/09 03:28:19;;;;;;;0.50;0.50;;;;;;;7.98;100.00;94633.34;29395;253;63019;-56
2024/02/09 03:28:51;;;;;;;0.60;0.60;;;;;;;7.96;100.00;94630.22;29395;239;63004;-56
2024/02/09 03:29:23;;;;;;;0.50;0.50;;;;;;;7.93;100.00;94628.19;29395;438;63009;-56
2024/02/09 03:29:54;;;;;;;0.50;0.50;;;;;;;7.90;100.00;94620.75;29394;227;64009;-56
2024/02/09 03:30:26;;;;;;;0.50;0.50;;;;;;;7.98;100.00;94622.56;29395;197;63014;-56
2024/02/09 03:30:58;;;;;;;1.35;1.23;;;;;;;8.01;100.00;94615.72;29395;265;63005;-56
2024/02/09 03:31:31;;;;;;;0.50;0.50;;;;;;;8.00;100.00;94625.72;29395;252;63009;-56
2024/02/09 03:32:04;;;;;;;0.50;0.50;;;;;;;7.99;100.00;94626.84;29395;367;63005;-55
2024/02/09 03:32:40;;;;;;;0.60;0.60;;;;;;;7.97;100.00;94623.69;29395;246;63016;-56
2024/02/09 03:33:12;;;;;;;0.50;0.50;;;;;;;7.98;100.00;94622.56;29395;320;63018;-56
2024/02/09 03:33:43;;;;;;;0.60;0.60;;;;;;;7.99;100.00;94624.12;29395;199;63009;-56
2024/02/09 03:34:14;;;;;;;0.50;0.50;;;;;;;8.04;100.00;94626.63;29395;441;63005;-56
2024/02/09 03:34:47;;;;;;;0.50;0.50;;;;;;;8.07;100.00;94619.78;29395;196;63016;-55
2024/02/09 03:35:19;;;;;;;0.50;0.50;;;;;;;8.02;100.00;94626.19;29394;375;64009;-56
2024/02/09 03:35:50;;;;;;;0.50;0.50;;;;;;;8.02;100.00;94612.69;29395;271;63009;-56
2024/02/09 03:36:22;;;;;;;0.50;0.50;;;;;;;8.02;100.00;94620.78;29394;212;64009;-56
2024/02/09 03:36:54;;;;;;;1.75;1.40;;;;;;;8.07;100.00;94619.78;29394;198;64013;-57
2024/02/09 03:37:26;;;;;;;0.60;0.60;;;;;;;8.08;100.00;94621.38;29395;197;63004;-56
2024/02/09 03:37:58;;;;;;;0.50;0.50;;;;;;;8.03;100.00;94616.16;29395;218;63008;-55
2024/02/09 03:38:29;;;;;;;0.73;0.73;;;;;;;8.01;100.00;94616.50;29395;204;63005;-56
2024/02/09 03:39:08;;;;;;;0.50;0.50;;;;;;;8.01;100.00;94613.78;29395;370;63009;-55
2024/02/09 03:39:39;;;;;;;0.50;0.50;;;;;;;7.98;100.00;94611.75;29395;222;63005;-54
2024/02/09 03:40:15;;;;;;;0.50;0.50;;;;;;;7.98;100.00;94617.16;29395;212;63019;-54
2024/02/09 03:40:51;;;;;;;0.57;0.57;;;;;;;8.00;100.00;94608.72;29395;219;63005;-55
2024/02/09 03:41:25;;;;;;;0.50;0.50;;;;;;;7.97;100.00;94610.19;29395;270;63025;-55
2024/02/09 03:41:56;;;;;;;0.50;0.50;;;;;;;8.01;100.00;94616.50;29394;257;64009;-55
2024/02/09 03:42:29;;;;;;;0.50;0.50;;;;;;;8.00;100.00;94609.50;29395;225;63009;-55
2024/02/09 03:43:00;;;;;;;0.50;0.50;;;;;;;7.99;100.00;94613.34;29395;225;63004;-55
2024/02/09 03:43:31;;;;;;;0.60;0.60;;;;;;;7.98;100.00;94609.06;29395;378;63009;-55
2024/02/09 03:44:03;;;;;;;0.50;0.50;;;;;;;7.99;100.00;94618.75;29395;225;63004;-55
2024/02/09 03:44:35;;;;;;;0.50;0.50;;;;;;;7.96;100.00;94614.03;29395;235;63009;-56
2024/02/09 03:45:07;;;;;;;0.50;0.50;;;;;;;7.94;100.00;94616.25;29395;213;63010;-56
2024/02/09 03:45:41;;;;;;;0.60;0.60;;;;;;;7.94;100.00;94615.47;29395;300;63008;-56
2024/02/09 03:46:14;;;;;;;0.50;0.50;;;;;;;7.89;100.00;94613.75;29395;205;63005;-55
2024/02/09 03:46:46;;;;;;;0.50;0.50;;;;;;;7.87;100.00;94617.91;29394;249;64014;-55
2024/02/09 03:47:22;;;;;;;0.60;0.60;;;;;;;7.85;100.00;94612.06;29395;438;63018;-55
2024/02/09 03:47:54;;;;;;;0.57;0.57;;;;;;;7.84;100.00;94611.25;29395;244;63013;-55
2024/02/09 03:48:26;;;;;;;0.50;0.50;;;;;;;7.89;100.00;94624.56;29395;241;63015;-55
2024/02/09 03:48:58;;;;;;;2.67;2.58;;;;;;;7.90;100.00;94612.66;29394;255;64013;-55
2024/02/09 03:49:29;;;;;;;0.60;0.60;;;;;;;7.89;100.00;94607.56;29395;393;63005;-55
2024/02/09 03:50:00;;;;;;;0.60;0.60;;;;;;;7.87;100.00;94616.00;29395;279;63009;-55
2024/02/09 03:50:34;;;;;;;0.60;0.60;;;;;;;7.86;100.00;94613.63;29395;346;63015;-55
2024/02/09 03:51:06;;;;;;;0.50;0.50;;;;;;;7.89;100.00;94613.75;29395;224;63009;-55
2024/02/09 03:51:38;;;;;;;0.50;0.50;;;;;;;7.89;100.00;94613.75;29395;239;63004;-55
2024/02/09 03:52:09;;;;;;;0.50;0.50;;;;;;;7.89;100.00;94613.75;29395;197;63009;-55
2024/02/09 03:52:46;;;;;;;0.50;0.50;;;;;;;7.89;100.00;94616.47;29395;268;63004;-54
2024/02/09 03:53:18;;;;;;;0.50;0.50;;;;;;;7.87;100.00;94610.59;29395;248;63008;-55
2024/02/09 03:53:49;;;;;;;0.50;0.50;;;;;;;7.89;100.00;94616.47;29395;207;63005;-56
2024/02/09 03:54:21;;;;;;;0.50;0.50;;;;;;;7.89;100.00;94613.75;29394;229;64014;-55
2024/02/09 03:54:53;;;;;;;0.60;0.60;;;;;;;7.93;100.00;94608.50;29395;228;63005;-55
2024/02/09 03:55:25;;;;;;;0.50;0.50;;;;;;;7.94;100.00;94613.56;29395;298;63009;-55
2024/02/09 03:55:58;;;;;;;0.60;0.60;;;;;;;7.94;100.00;94605.47;29395;226;63017;-55
2024/02/09 03:56:30;;;;;;;0.50;0.50;;;;;;;7.93;100.00;94608.50;29395;245;63019;-55
2024/02/09 03:57:01;;;;;;;0.60;0.60;;;;;;;7.93;100.00;94606.59;29395;227;63004;-71
2024/02/09 03:57:33;;;;;;;0.57;0.57;;;;;;;7.96;100.00;94597.81;29395;209;63009;-56
2024/02/09 03:58:04;;;;;;;0.60;0.60;;;;;;;7.96;100.00;94605.94;29395;216;63004;-54
2024/02/09 03:58:35;;;;;;;0.60;0.60;;;;;;;7.96;100.00;94599.72;29395;204;63008;-56
2024/02/09 03:59:06;;;;;;;0.70;0.70;;;;;;;7.95;100.00;94601.66;29395;250;63004;-55
2024/02/09 03:59:39;;;;;;;0.60;0.60;;;;;;;7.96;100.00;94597.81;29394;215;64013;-56
2024/02/09 04:00:15;;;;;;;0.50;0.50;;;;;;;7.95;100.00;94590.84;29395;225;63004;-56
2024/02/09 04:00:46;;;;;;;0.70;0.70;;;;;;;7.99;100.00;94602.53;29395;259;63008;-55
2024/02/09 04:01:22;;;;;;;0.50;0.50;;;;;;;7.97;100.00;94593.97;29395;234;63005;-56
2024/02/09 04:01:54;;;;;;;0.65;0.65;;;;;;;7.98;100.00;94595.56;29395;244;63009;-56
2024/02/09 04:02:28;;;;;;;0.50;0.50;;;;;;;8.00;100.00;94595.22;29395;206;63005;-55
2024/02/09 04:02:59;;;;;;;0.50;0.50;;;;;;;8.00;100.00;94598.72;29395;285;63009;-55
2024/02/09 04:03:32;;;;;;;0.50;0.50;;;;;;;7.97;100.00;94593.97;29395;251;63005;-55
2024/02/09 04:04:05;;;;;;;0.50;0.50;;;;;;;8.02;100.00;94591.06;29395;227;63020;-55
2024/02/09 04:04:37;;;;;;;0.50;0.50;;;;;;;7.98;100.00;94590.16;29395;249;63004;-55
2024/02/09 04:05:17;;;;;;;0.50;0.50;;;;;;;7.96;100.00;94592.44;29394;197;64013;-54
2024/02/09 04:05:48;;;;;;;0.50;0.50;;;;;;;7.93;100.00;94586.91;29395;264;63009;-55
2024/02/09 04:06:24;;;;;;;0.50;0.50;;;;;;;7.93;100.00;94592.28;29395;215;63009;-55
2024/02/09 04:06:55;;;;;;;0.52;0.52;;;;;;;7.94;100.00;94589.25;29395;213;63004;-58
2024/02/09 04:07:26;;;;;;;0.60;0.60;;;;;;;7.92;100.00;94588.81;29395;197;63020;-55
2024/02/09 04:07:58;;;;;;;0.50;0.50;;;;;;;7.90;100.00;94588.34;29395;491;63005;-55
2024/02/09 04:08:29;;;;;;;0.50;0.50;;;;;;;7.89;100.00;94591.38;29395;207;63009;-56
2024/02/09 04:09:00;;;;;;;0.50;0.50;;;;;;;7.88;100.00;94595.97;29395;205;63005;-55
2024/02/09 04:09:36;;;;;;;0.60;0.60;;;;;;;7.87;100.00;94593.62;29395;225;63009;-55
2024/02/09 04:10:08;;;;;;;0.52;0.52;;;;;;;7.87;100.00;94594.41;29395;211;63009;-55
2024/02/09 04:10:40;;;;;;;0.60;0.60;;;;;;;7.88;100.00;94589.78;29394;216;64013;-56
2024/02/09 04:11:17;;;;;;;0.50;0.50;;;;;;;7.90;100.00;94593.75;29395;220;63005;-70
2024/02/09 04:11:49;;;;;;;0.50;0.50;;;;;;;7.87;100.00;94588.22;29395;520;63009;-55
2024/02/09 04:12:20;;;;;;;0.50;0.50;;;;;;;7.85;100.00;94588.53;29395;222;63004;-55
2024/02/09 04:12:51;;;;;;;0.60;0.60;;;;;;;7.82;100.00;94586.50;29395;202;63009;-55
2024/02/09 04:13:22;;;;;;;0.50;0.50;;;;;;;7.83;100.00;94590.00;29395;234;63011;-56
2024/02/09 04:13:53;;;;;;;0.60;0.60;;;;;;;7.83;100.00;94587.28;29395;241;63009;-55
2024/02/09 04:14:25;;;;;;;0.50;0.50;;;;;;;7.80;100.00;94583.34;29395;242;63008;-55
2024/02/09 04:14:59;;;;;;;0.60;0.60;;;;;;;7.84;100.00;94589.66;29395;211;63008;-55
2024/02/09 04:15:30;;;;;;;0.50;0.50;;;;;;;7.82;100.00;94591.91;29395;245;63001;-55
2024/02/09 04:16:08;;;;;;;0.50;0.50;;;;;;;7.83;100.00;94585.38;29394;237;64014;-55
2024/02/09 04:16:39;;;;;;;0.50;0.50;;;;;;;7.84;100.00;94594.28;29395;244;63005;-56
2024/02/09 04:17:10;;;;;;;0.50;0.50;;;;;;;7.84;100.00;94589.66;29395;260;63009;-55
2024/02/09 04:17:44;;;;;;;0.52;0.52;;;;;;;7.83;100.00;94585.38;29395;199;63005;-56
2024/02/09 04:18:15;;;;;;;0.50;0.50;;;;;;;7.82;100.00;94586.50;29395;225;63009;-55
2024/02/09 04:18:47;;;;;;;0.55;0.55;;;;;;;7.81;100.00;94584.13;29395;204;63005;-55
2024/02/09 04:19:23;;;;;;;0.50;0.50;;;;;;;7.82;100.00;94585.72;29395;267;63017;-55
2024/02/09 04:19:55;;;;;;;0.60;0.60;;;;;;;7.83;100.00;94582.69;29395;246;63004;-54
2024/02/09 04:20:26;;;;;;;0.50;0.50;;;;;;;7.85;100.00;94585.06;29395;212;63009;-55
2024/02/09 04:20:59;;;;;;;0.60;0.60;;;;;;;7.86;100.00;94581.22;29395;227;63004;-55
2024/02/09 04:21:30;;;;;;;0.50;0.50;;;;;;;7.91;100.00;94579.13;29394;247;64013;-55
2024/02/09 04:22:02;;;;;;;0.50;0.50;;;;;;;7.94;100.00;94585.78;29395;247;63004;-66
2024/02/09 04:22:33;;;;;;;0.50;0.50;;;;;;;7.96;100.00;94584.31;29395;207;63008;-55
2024/02/09 04:23:04;;;;;;;0.70;0.70;;;;;;;8.00;100.00;94576.31;29395;206;63005;-55
2024/02/09 04:23:39;;;;;;;0.50;0.50;;;;;;;7.98;100.00;94582.06;29395;215;63009;-54
2024/02/09 04:24:10;;;;;;;0.50;0.50;;;;;;;7.95;100.00;94582.75;29395;271;63005;-55
2024/02/09 04:24:41;;;;;;;0.50;0.50;;;;;;;7.98;100.00;94590.16;29395;231;63009;-56